sensor_id;sensor_type;location;lat;lon;timestamp;pressure;altitude;pressure_sealevel;temperature;humidity
5812;BME280;2932;52.400;9.558;2023-07-29T00:01:35;100125.72;;;23.04;78.95
5812;BME280;2932;52.400;9.558;2023-07-29T00:04:01;100117.09;;;22.94;79.04
5812;BME280;2932;52.400;9.558;2023-07-29T00:06:27;100116.13;;;23.01;79.13
5812;BME280;2932;52.400;9.558;2023-07-29T00:08:52;100117.41;;;23.13;78.76
5812;BME280;2932;52.400;9.558;2023-07-29T00:11:18;100114.38;;;23.20;78.54
5812;BME280;2932;52.400;9.558;2023-07-29T00:13:43;100127.47;;;23.14;78.58
5812;BME280;2932;52.400;9.558;2023-07-29T00:16:09;100123.16;;;23.38;78.07
5812;BME280;2932;52.400;9.558;2023-07-29T00:18:34;100122.63;;;23.43;76.96
5812;BME280;2932;52.400;9.558;2023-07-29T00:21:00;100118.66;;;23.41;77.51
5812;BME280;2932;52.400;9.558;2023-07-29T00:23:25;100123.41;;;23.44;77.43
5812;BME280;2932;52.400;9.558;2023-07-29T00:25:50;100123.66;;;23.49;77.16
5812;BME280;2932;52.400;9.558;2023-07-29T00:28:16;100117.41;;;23.42;76.97
5812;BME280;2932;52.400;9.558;2023-07-29T00:30:41;100130.88;;;23.21;77.23
5812;BME280;2932;52.400;9.558;2023-07-29T00:33:06;100122.31;;;23.25;77.63
5812;BME280;2932;52.400;9.558;2023-07-29T00:35:32;100121.53;;;23.24;77.56
5812;BME280;2932;52.400;9.558;2023-07-29T00:37:57;100121.97;;;23.23;77.74
5812;BME280;2932;52.400;9.558;2023-07-29T00:40:22;100117.09;;;23.23;77.88
5812;BME280;2932;52.400;9.558;2023-07-29T00:42:49;100115.78;;;23.28;77.66
5812;BME280;2932;52.400;9.558;2023-07-29T00:45:14;100114.44;;;23.33;77.34
5812;BME280;2932;52.400;9.558;2023-07-29T00:47:41;100109.59;;;23.33;77.17
5812;BME280;2932;52.400;9.558;2023-07-29T00:50:08;100105.53;;;23.34;77.02
5812;BME280;2932;52.400;9.558;2023-07-29T00:52:34;100119.13;;;23.23;77.48
5812;BME280;2932;52.400;9.558;2023-07-29T00:55:00;100112.25;;;23.24;77.56
5812;BME280;2932;52.400;9.558;2023-07-29T00:57:26;100111.91;;;23.22;77.43
5812;BME280;2932;52.400;9.558;2023-07-29T00:59:52;100113.94;;;23.21;77.41
5812;BME280;2932;52.400;9.558;2023-07-29T01:02:17;100112.03;;;23.18;77.34
5812;BME280;2932;52.400;9.558;2023-07-29T01:04:43;100106.94;;;23.13;77.22
5812;BME280;2932;52.400;9.558;2023-07-29T01:07:31;100116.28;;;23.10;77.50
5812;BME280;2932;52.400;9.558;2023-07-29T01:13:29;100104.91;;;23.14;77.24
5812;BME280;2932;52.400;9.558;2023-07-29T01:16:00;100100.03;;;23.14;77.14
5812;BME280;2932;52.400;9.558;2023-07-29T01:18:32;100096.78;;;23.16;76.83
5812;BME280;2932;52.400;9.558;2023-07-29T01:21:04;100096.88;;;23.12;77.00
5812;BME280;2932;52.400;9.558;2023-07-29T01:23:33;100099.28;;;22.98;77.08
5812;BME280;2932;52.400;9.558;2023-07-29T01:25:59;100099.28;;;22.98;77.62
5812;BME280;2932;52.400;9.558;2023-07-29T01:28:25;100103.34;;;22.97;77.54
5812;BME280;2932;52.400;9.558;2023-07-29T01:30:54;100098.09;;;23.11;77.10
5812;BME280;2932;52.400;9.558;2023-07-29T01:33:26;100100.88;;;22.99;78.12
5812;BME280;2932;52.400;9.558;2023-07-29T01:35:56;100100.59;;;23.09;77.77
5812;BME280;2932;52.400;9.558;2023-07-29T01:38:31;100101.72;;;23.12;77.50
5812;BME280;2932;52.400;9.558;2023-07-29T01:41:01;100093.38;;;23.21;77.36
5812;BME280;2932;52.400;9.558;2023-07-29T01:43:28;100100.63;;;23.22;77.22
5812;BME280;2932;52.400;9.558;2023-07-29T01:45:54;100095.75;;;23.22;76.89
5812;BME280;2932;52.400;9.558;2023-07-29T01:48:19;100099.16;;;23.17;76.64
5812;BME280;2932;52.400;9.558;2023-07-29T01:50:44;100099.59;;;23.16;76.89
5812;BME280;2932;52.400;9.558;2023-07-29T01:53:10;100093.53;;;23.01;77.61
5812;BME280;2932;52.400;9.558;2023-07-29T01:55:35;100078.63;;;23.01;77.51
5812;BME280;2932;52.400;9.558;2023-07-29T01:58:00;100080.19;;;23.18;77.43
5812;BME280;2932;52.400;9.558;2023-07-29T02:00:26;100081.22;;;23.24;77.19
5812;BME280;2932;52.400;9.558;2023-07-29T02:02:51;100086.66;;;23.31;76.62
5812;BME280;2932;52.400;9.558;2023-07-29T02:05:16;100086.81;;;23.11;76.74
5812;BME280;2932;52.400;9.558;2023-07-29T02:07:42;100085.13;;;23.14;76.85
5812;BME280;2932;52.400;9.558;2023-07-29T02:10:07;100084.88;;;23.08;77.15
5812;BME280;2932;52.400;9.558;2023-07-29T02:12:33;100083.50;;;22.84;77.59
5812;BME280;2932;52.400;9.558;2023-07-29T02:14:58;100075.59;;;22.79;77.92
5812;BME280;2932;52.400;9.558;2023-07-29T02:17:24;100079.63;;;22.78;78.09
5812;BME280;2932;52.400;9.558;2023-07-29T02:19:49;100075.13;;;22.97;77.83
5812;BME280;2932;52.400;9.558;2023-07-29T02:22:16;100070.19;;;22.84;78.16
5812;BME280;2932;52.400;9.558;2023-07-29T02:24:42;100066.75;;;22.93;78.06
5812;BME280;2932;52.400;9.558;2023-07-29T02:27:07;100063.56;;;23.07;77.44
5812;BME280;2932;52.400;9.558;2023-07-29T02:29:32;100067.50;;;23.10;77.16
5812;BME280;2932;52.400;9.558;2023-07-29T02:31:59;100065.13;;;23.08;77.03
5812;BME280;2932;52.400;9.558;2023-07-29T02:34:24;100063.81;;;23.13;76.89
5812;BME280;2932;52.400;9.558;2023-07-29T02:36:52;100071.91;;;23.11;76.51
5812;BME280;2932;52.400;9.558;2023-07-29T02:39:18;100061.78;;;23.13;76.63
5812;BME280;2932;52.400;9.558;2023-07-29T02:41:43;100058.34;;;23.06;77.24
5812;BME280;2932;52.400;9.558;2023-07-29T02:44:08;100058.94;;;23.13;76.78
5812;BME280;2932;52.400;9.558;2023-07-29T02:46:34;100055.78;;;23.11;76.65
5812;BME280;2932;52.400;9.558;2023-07-29T02:48:59;100056.47;;;23.15;76.64
5812;BME280;2932;52.400;9.558;2023-07-29T02:51:25;100056.47;;;23.15;76.34
5812;BME280;2932;52.400;9.558;2023-07-29T02:53:50;100067.84;;;23.12;76.41
5812;BME280;2932;52.400;9.558;2023-07-29T02:56:16;100066.72;;;23.09;76.48
5812;BME280;2932;52.400;9.558;2023-07-29T02:58:41;100065.47;;;23.10;76.93
5812;BME280;2932;52.400;9.558;2023-07-29T03:01:09;100077.41;;;23.02;76.72
5812;BME280;2932;52.400;9.558;2023-07-29T03:03:34;100072.47;;;22.89;77.34
5812;BME280;2932;52.400;9.558;2023-07-29T03:06:01;100079.00;;;22.86;77.64
5812;BME280;2932;52.400;9.558;2023-07-29T03:08:27;100069.22;;;22.91;78.13
5812;BME280;2932;52.400;9.558;2023-07-29T03:10:53;100061.47;;;22.95;77.92
5812;BME280;2932;52.400;9.558;2023-07-29T03:13:18;100062.78;;;22.90;77.69
5812;BME280;2932;52.400;9.558;2023-07-29T03:15:44;100068.44;;;22.90;77.86
5812;BME280;2932;52.400;9.558;2023-07-29T03:18:09;100056.78;;;22.88;77.64
5812;BME280;2932;52.400;9.558;2023-07-29T03:20:34;100049.13;;;22.89;78.18
5812;BME280;2932;52.400;9.558;2023-07-29T03:23:00;100052.72;;;22.89;78.18
5812;BME280;2932;52.400;9.558;2023-07-29T03:25:26;100037.38;;;22.90;77.67
5812;BME280;2932;52.400;9.558;2023-07-29T03:27:51;100042.16;;;22.93;77.72
5812;BME280;2932;52.400;9.558;2023-07-29T03:30:20;100044.44;;;22.99;77.64
5812;BME280;2932;52.400;9.558;2023-07-29T03:32:46;100043.88;;;23.04;77.45
5812;BME280;2932;52.400;9.558;2023-07-29T03:35:11;100045.13;;;23.03;77.08
5812;BME280;2932;52.400;9.558;2023-07-29T03:37:36;100054.63;;;23.09;77.11
5812;BME280;2932;52.400;9.558;2023-07-29T03:40:02;100047.75;;;23.10;77.25
5812;BME280;2932;52.400;9.558;2023-07-29T03:42:28;100047.66;;;23.13;77.53
5812;BME280;2932;52.400;9.558;2023-07-29T03:44:53;100049.16;;;23.18;77.65
5812;BME280;2932;52.400;9.558;2023-07-29T03:47:19;100057.03;;;23.23;77.07
5812;BME280;2932;52.400;9.558;2023-07-29T03:49:44;100046.53;;;23.23;76.99
5812;BME280;2932;52.400;9.558;2023-07-29T03:52:09;100043.38;;;23.21;77.14
5812;BME280;2932;52.400;9.558;2023-07-29T03:54:35;100040.34;;;23.28;76.64
5812;BME280;2932;52.400;9.558;2023-07-29T03:57:00;100038.97;;;23.20;77.16
5812;BME280;2932;52.400;9.558;2023-07-29T03:59:26;100038.22;;;23.33;76.80
5812;BME280;2932;52.400;9.558;2023-07-29T04:01:51;100039.34;;;23.35;76.75
5812;BME280;2932;52.400;9.558;2023-07-29T04:04:16;100039.56;;;23.28;76.87
5812;BME280;2932;52.400;9.558;2023-07-29T04:06:42;100036.50;;;23.22;77.00
5812;BME280;2932;52.400;9.558;2023-07-29T04:09:07;100035.59;;;23.25;77.11
5812;BME280;2932;52.400;9.558;2023-07-29T04:11:33;100031.53;;;23.26;77.05
5812;BME280;2932;52.400;9.558;2023-07-29T04:13:58;100034.00;;;23.24;77.20
5812;BME280;2932;52.400;9.558;2023-07-29T04:16:24;100027.22;;;23.22;76.88
5812;BME280;2932;52.400;9.558;2023-07-29T04:18:49;100023.84;;;23.27;77.01
5812;BME280;2932;52.400;9.558;2023-07-29T04:21:14;100024.19;;;23.29;76.74
5812;BME280;2932;52.400;9.558;2023-07-29T04:23:40;100015.03;;;23.25;76.97
5812;BME280;2932;52.400;9.558;2023-07-29T04:26:05;100014.69;;;23.23;76.66
5812;BME280;2932;52.400;9.558;2023-07-29T04:28:31;100006.47;;;23.16;76.93
5812;BME280;2932;52.400;9.558;2023-07-29T04:30:56;100015.72;;;23.16;77.30
5812;BME280;2932;52.400;9.558;2023-07-29T04:33:21;100008.84;;;23.17;76.95
5812;BME280;2932;52.400;9.558;2023-07-29T04:35:46;100016.72;;;23.10;77.20
5812;BME280;2932;52.400;9.558;2023-07-29T04:38:12;100020.09;;;23.05;77.33
5812;BME280;2932;52.400;9.558;2023-07-29T04:40:37;100025.63;;;23.08;77.27
5812;BME280;2932;52.400;9.558;2023-07-29T04:43:03;100032.94;;;23.06;76.93
5812;BME280;2932;52.400;9.558;2023-07-29T04:45:29;100029.94;;;23.13;77.38
5812;BME280;2932;52.400;9.558;2023-07-29T04:47:55;100030.91;;;23.06;77.42
5812;BME280;2932;52.400;9.558;2023-07-29T04:50:20;100032.94;;;23.06;77.43
5812;BME280;2932;52.400;9.558;2023-07-29T04:52:45;100026.41;;;23.09;77.55
5812;BME280;2932;52.400;9.558;2023-07-29T04:55:11;100032.06;;;23.09;77.55
5812;BME280;2932;52.400;9.558;2023-07-29T04:57:36;100029.69;;;23.07;77.65
5812;BME280;2932;52.400;9.558;2023-07-29T05:00:02;100023.84;;;23.14;77.90
5812;BME280;2932;52.400;9.558;2023-07-29T05:02:28;100021.47;;;23.13;77.78
5812;BME280;2932;52.400;9.558;2023-07-29T05:04:53;100025.66;;;23.21;77.57
5812;BME280;2932;52.400;9.558;2023-07-29T05:07:19;100017.63;;;23.19;77.30
5812;BME280;2932;52.400;9.558;2023-07-29T05:09:44;100023.50;;;23.25;77.23
5812;BME280;2932;52.400;9.558;2023-07-29T05:12:09;100015.72;;;23.16;76.92
5812;BME280;2932;52.400;9.558;2023-07-29T05:14:35;100018.75;;;23.09;77.40
5812;BME280;2932;52.400;9.558;2023-07-29T05:17:00;100018.88;;;23.18;77.54
5812;BME280;2932;52.400;9.558;2023-07-29T05:19:26;100016.06;;;23.18;77.40
5812;BME280;2932;52.400;9.558;2023-07-29T05:21:51;100011.53;;;23.21;77.25
5812;BME280;2932;52.400;9.558;2023-07-29T05:24:16;99998.09;;;23.25;76.97
5812;BME280;2932;52.400;9.558;2023-07-29T05:26:42;100004.53;;;23.25;76.63
5812;BME280;2932;52.400;9.558;2023-07-29T05:29:07;100002.41;;;23.29;76.52
5812;BME280;2932;52.400;9.558;2023-07-29T05:31:32;100001.97;;;23.31;76.54
5812;BME280;2932;52.400;9.558;2023-07-29T05:33:58;99994.19;;;23.35;76.02
5812;BME280;2932;52.400;9.558;2023-07-29T05:36:24;99985.47;;;23.29;76.28
5812;BME280;2932;52.400;9.558;2023-07-29T05:38:49;99984.00;;;23.25;76.52
5812;BME280;2932;52.400;9.558;2023-07-29T05:41:15;99992.25;;;23.32;76.54
5812;BME280;2932;52.400;9.558;2023-07-29T05:43:40;99998.03;;;23.41;76.29
5812;BME280;2932;52.400;9.558;2023-07-29T05:46:08;100004.00;;;23.31;76.25
5812;BME280;2932;52.400;9.558;2023-07-29T05:48:33;99985.38;;;23.33;76.42
5812;BME280;2932;52.400;9.558;2023-07-29T05:50:59;99989.56;;;23.41;76.38
5812;BME280;2932;52.400;9.558;2023-07-29T05:53:24;99982.78;;;23.39;76.27
5812;BME280;2932;52.400;9.558;2023-07-29T05:55:49;99993.63;;;23.40;76.58
5812;BME280;2932;52.400;9.558;2023-07-29T05:58:15;100002.78;;;23.44;76.60
5812;BME280;2932;52.400;9.558;2023-07-29T06:00:40;100002.44;;;23.42;76.53
5812;BME280;2932;52.400;9.558;2023-07-29T06:03:06;100008.66;;;23.37;76.28
5812;BME280;2932;52.400;9.558;2023-07-29T06:05:31;100014.28;;;23.37;76.39
5812;BME280;2932;52.400;9.558;2023-07-29T06:07:57;100013.41;;;23.40;76.36
5812;BME280;2932;52.400;9.558;2023-07-29T06:10:22;100002.44;;;23.42;76.01
5812;BME280;2932;52.400;9.558;2023-07-29T06:12:47;100002.44;;;23.42;76.32
5812;BME280;2932;52.400;9.558;2023-07-29T06:15:13;100005.06;;;23.49;75.78
5812;BME280;2932;52.400;9.558;2023-07-29T06:17:39;100001.09;;;23.47;76.10
5812;BME280;2932;52.400;9.558;2023-07-29T06:20:06;100000.56;;;23.52;75.97
5812;BME280;2932;52.400;9.558;2023-07-29T06:22:31;99999.44;;;23.62;75.95
5812;BME280;2932;52.400;9.558;2023-07-29T06:24:57;99993.34;;;23.64;75.75
5812;BME280;2932;52.400;9.558;2023-07-29T06:27:22;100006.34;;;23.74;75.70
5812;BME280;2932;52.400;9.558;2023-07-29T06:29:49;100000.13;;;23.66;75.94
5812;BME280;2932;52.400;9.558;2023-07-29T06:32:15;100002.94;;;23.66;75.73
5812;BME280;2932;52.400;9.558;2023-07-29T06:34:40;100007.56;;;23.60;76.30
5812;BME280;2932;52.400;9.558;2023-07-29T06:37:06;100013.00;;;23.67;76.30
5812;BME280;2932;52.400;9.558;2023-07-29T06:39:31;100010.53;;;23.82;76.29
5812;BME280;2932;52.400;9.558;2023-07-29T06:41:56;100019.13;;;23.91;75.99
5812;BME280;2932;52.400;9.558;2023-07-29T06:44:22;100014.94;;;23.83;76.17
5812;BME280;2932;52.400;9.558;2023-07-29T06:46:47;100020.47;;;23.74;76.26
5812;BME280;2932;52.400;9.558;2023-07-29T06:49:12;100022.28;;;23.80;75.93
5812;BME280;2932;52.400;9.558;2023-07-29T06:51:38;100016.75;;;23.89;76.30
5812;BME280;2932;52.400;9.558;2023-07-29T06:54:03;100023.19;;;23.90;76.21
5812;BME280;2932;52.400;9.558;2023-07-29T06:56:29;100009.66;;;23.98;75.83
5812;BME280;2932;52.400;9.558;2023-07-29T06:58:54;100007.91;;;24.00;75.67
5812;BME280;2932;52.400;9.558;2023-07-29T07:01:19;100016.63;;;24.06;75.75
5812;BME280;2932;52.400;9.558;2023-07-29T07:03:45;100021.97;;;23.91;75.29
5812;BME280;2932;52.400;9.558;2023-07-29T07:06:10;100019.22;;;24.00;75.60
5812;BME280;2932;52.400;9.558;2023-07-29T07:08:35;100023.78;;;23.98;75.43
5812;BME280;2932;52.400;9.558;2023-07-29T07:11:01;100012.66;;;24.03;75.63
5812;BME280;2932;52.400;9.558;2023-07-29T07:13:26;100016.63;;;24.06;76.00
5812;BME280;2932;52.400;9.558;2023-07-29T07:15:54;100021.16;;;24.03;75.79
5812;BME280;2932;52.400;9.558;2023-07-29T07:18:20;100008.16;;;24.06;76.06
5812;BME280;2932;52.400;9.558;2023-07-29T07:20:48;100008.03;;;24.09;75.85
5812;BME280;2932;52.400;9.558;2023-07-29T07:23:14;100008.94;;;24.19;76.14
5812;BME280;2932;52.400;9.558;2023-07-29T07:25:40;100019.56;;;24.15;75.83
5812;BME280;2932;52.400;9.558;2023-07-29T07:28:07;100021.72;;;24.23;75.94
5812;BME280;2932;52.400;9.558;2023-07-29T07:30:32;100017.22;;;24.26;75.69
5812;BME280;2932;52.400;9.558;2023-07-29T07:32:57;100020.72;;;24.30;75.75
5812;BME280;2932;52.400;9.558;2023-07-29T07:35:23;100011.06;;;24.40;75.20
5812;BME280;2932;52.400;9.558;2023-07-29T07:37:48;100003.91;;;24.48;75.17
5812;BME280;2932;52.400;9.558;2023-07-29T07:40:13;100011.03;;;24.53;75.17
5812;BME280;2932;52.400;9.558;2023-07-29T07:42:39;100000.59;;;24.63;74.94
5812;BME280;2932;52.400;9.558;2023-07-29T07:45:05;99999.78;;;24.75;75.17
5812;BME280;2932;52.400;9.558;2023-07-29T07:47:30;99993.03;;;24.81;74.50
5812;BME280;2932;52.400;9.558;2023-07-29T07:49:55;99980.34;;;24.86;74.53
5812;BME280;2932;52.400;9.558;2023-07-29T07:52:21;99989.75;;;24.96;74.00
5812;BME280;2932;52.400;9.558;2023-07-29T07:54:51;100005.94;;;24.60;73.97
5812;BME280;2932;52.400;9.558;2023-07-29T07:57:17;100009.44;;;24.52;74.16
5812;BME280;2932;52.400;9.558;2023-07-29T07:59:42;99998.94;;;24.52;73.99
5812;BME280;2932;52.400;9.558;2023-07-29T08:02:07;100005.38;;;24.53;73.99
5812;BME280;2932;52.400;9.558;2023-07-29T08:04:33;100011.97;;;24.12;75.03
5812;BME280;2932;52.400;9.558;2023-07-29T08:06:58;100010.97;;;23.55;77.23
5812;BME280;2932;52.400;9.558;2023-07-29T08:09:23;100010.28;;;23.64;77.56
5812;BME280;2932;52.400;9.558;2023-07-29T08:11:49;100013.03;;;23.92;76.84
5812;BME280;2932;52.400;9.558;2023-07-29T08:14:14;100007.81;;;23.66;77.48
5812;BME280;2932;52.400;9.558;2023-07-29T08:16:39;100010.41;;;23.60;77.54
5812;BME280;2932;52.400;9.558;2023-07-29T08:19:05;100002.63;;;23.77;77.64
5812;BME280;2932;52.400;9.558;2023-07-29T08:21:30;100001.25;;;23.69;77.10
5812;BME280;2932;52.400;9.558;2023-07-29T08:23:55;100003.91;;;23.34;78.91
5812;BME280;2932;52.400;9.558;2023-07-29T08:26:21;100003.66;;;23.16;79.45
5812;BME280;2932;52.400;9.558;2023-07-29T08:28:46;100005.34;;;23.26;79.28
5812;BME280;2932;52.400;9.558;2023-07-29T08:31:11;100013.44;;;23.11;79.80
5812;BME280;2932;52.400;9.558;2023-07-29T08:33:37;100007.00;;;23.11;80.38
5812;BME280;2932;52.400;9.558;2023-07-29T08:36:03;99996.16;;;23.09;80.14
5812;BME280;2932;52.400;9.558;2023-07-29T08:38:28;99991.72;;;23.37;79.03
5812;BME280;2932;52.400;9.558;2023-07-29T08:40:59;100011.44;;;23.24;79.58
5812;BME280;2932;52.400;9.558;2023-07-29T08:43:31;100008.41;;;23.32;80.38
5812;BME280;2932;52.400;9.558;2023-07-29T08:45:58;100006.75;;;23.47;79.10
5812;BME280;2932;52.400;9.558;2023-07-29T08:48:32;100008.28;;;23.77;78.64
5812;BME280;2932;52.400;9.558;2023-07-29T08:50:59;100005.78;;;24.04;77.55
5812;BME280;2932;52.400;9.558;2023-07-29T08:53:26;99996.31;;;23.98;77.32
5812;BME280;2932;52.400;9.558;2023-07-29T08:55:53;99993.59;;;23.94;77.13
5812;BME280;2932;52.400;9.558;2023-07-29T08:58:21;100001.13;;;24.10;77.03
5812;BME280;2932;52.400;9.558;2023-07-29T09:00:47;99995.91;;;24.21;76.80
5812;BME280;2932;52.400;9.558;2023-07-29T09:03:13;100001.03;;;23.76;77.25
5812;BME280;2932;52.400;9.558;2023-07-29T09:05:38;100005.16;;;23.46;78.41
5812;BME280;2932;52.400;9.558;2023-07-29T09:08:04;99993.31;;;23.51;78.87
5812;BME280;2932;52.400;9.558;2023-07-29T09:10:29;99995.97;;;23.96;77.50
5812;BME280;2932;52.400;9.558;2023-07-29T09:12:55;99993.13;;;23.96;77.05
5812;BME280;2932;52.400;9.558;2023-07-29T09:15:28;99992.81;;;23.94;76.80
5812;BME280;2932;52.400;9.558;2023-07-29T09:17:58;99993.38;;;23.89;76.65
5812;BME280;2932;52.400;9.558;2023-07-29T09:20:25;99987.00;;;23.59;77.65
5812;BME280;2932;52.400;9.558;2023-07-29T09:22:50;99990.84;;;23.66;77.67
5812;BME280;2932;52.400;9.558;2023-07-29T09:25:22;99993.44;;;23.60;77.99
5812;BME280;2932;52.400;9.558;2023-07-29T09:27:48;99981.41;;;23.31;77.90
5812;BME280;2932;52.400;9.558;2023-07-29T09:30:17;99984.94;;;23.35;77.67
5812;BME280;2932;52.400;9.558;2023-07-29T09:32:42;99973.06;;;23.40;78.08
5812;BME280;2932;52.400;9.558;2023-07-29T09:35:14;99987.22;;;23.52;77.34
5812;BME280;2932;52.400;9.558;2023-07-29T09:37:39;99976.16;;;23.71;76.62
5812;BME280;2932;52.400;9.558;2023-07-29T09:40:06;99989.91;;;23.43;77.21
5812;BME280;2932;52.400;9.558;2023-07-29T09:42:32;99982.84;;;23.77;77.00
5812;BME280;2932;52.400;9.558;2023-07-29T09:44:57;99991.22;;;23.80;76.73
5812;BME280;2932;52.400;9.558;2023-07-29T09:47:23;99983.59;;;24.03;76.10
5812;BME280;2932;52.400;9.558;2023-07-29T09:49:50;99974.00;;;24.00;74.62
5812;BME280;2932;52.400;9.558;2023-07-29T09:52:17;99981.03;;;23.96;74.14
5812;BME280;2932;52.400;9.558;2023-07-29T09:54:43;99982.06;;;23.76;73.96
5812;BME280;2932;52.400;9.558;2023-07-29T09:57:16;99974.78;;;24.13;72.99
5812;BME280;2932;52.400;9.558;2023-07-29T09:59:42;99984.06;;;24.26;73.04
5812;BME280;2932;52.400;9.558;2023-07-29T10:02:13;99983.16;;;24.30;73.54
5812;BME280;2932;52.400;9.558;2023-07-29T10:04:41;99979.19;;;24.14;72.93
5812;BME280;2932;52.400;9.558;2023-07-29T10:07:11;99969.75;;;24.43;72.87
5812;BME280;2932;52.400;9.558;2023-07-29T10:09:38;99970.75;;;24.49;71.81
5812;BME280;2932;52.400;9.558;2023-07-29T10:12:05;99966.69;;;24.50;70.92
5812;BME280;2932;52.400;9.558;2023-07-29T10:14:31;99972.59;;;24.77;69.96
5812;BME280;2932;52.400;9.558;2023-07-29T10:16:56;99965.63;;;24.69;68.80
5812;BME280;2932;52.400;9.558;2023-07-29T10:19:23;99980.13;;;25.15;67.87
5812;BME280;2932;52.400;9.558;2023-07-29T10:21:56;99959.09;;;25.25;67.49
5812;BME280;2932;52.400;9.558;2023-07-29T10:24:24;99957.13;;;25.66;65.76
5812;BME280;2932;52.400;9.558;2023-07-29T10:26:57;99967.72;;;25.21;65.62
5812;BME280;2932;52.400;9.558;2023-07-29T10:29:24;99972.44;;;25.46;67.00
5812;BME280;2932;52.400;9.558;2023-07-29T10:31:52;99970.88;;;25.45;66.55
5812;BME280;2932;52.400;9.558;2023-07-29T10:34:19;99971.47;;;25.40;67.27
5812;BME280;2932;52.400;9.558;2023-07-29T10:36:46;99975.09;;;25.41;66.15
5812;BME280;2932;52.400;9.558;2023-07-29T10:39:12;99979.31;;;24.92;67.99
5812;BME280;2932;52.400;9.558;2023-07-29T10:47:34;99965.94;;;25.37;66.29
5812;BME280;2932;52.400;9.558;2023-07-29T10:49:59;99973.00;;;25.32;65.56
5812;BME280;2932;52.400;9.558;2023-07-29T10:54:59;99971.91;;;26.01;64.37
5812;BME280;2932;52.400;9.558;2023-07-29T10:57:35;99974.06;;;26.46;63.58
5812;BME280;2932;52.400;9.558;2023-07-29T11:00:02;99974.72;;;26.86;62.47
5812;BME280;2932;52.400;9.558;2023-07-29T11:02:33;99973.75;;;26.35;62.41
5812;BME280;2932;52.400;9.558;2023-07-29T11:05:05;99970.41;;;25.78;62.34
5812;BME280;2932;52.400;9.558;2023-07-29T11:07:30;99963.59;;;26.15;60.85
5812;BME280;2932;52.400;9.558;2023-07-29T11:20:11;99970.28;;;25.81;56.72
5812;BME280;2932;52.400;9.558;2023-07-29T11:22:37;99976.66;;;26.13;55.36
5812;BME280;2932;52.400;9.558;2023-07-29T11:25:04;99977.53;;;26.32;55.10
5812;BME280;2932;52.400;9.558;2023-07-29T11:27:30;99984.13;;;26.29;55.24
5812;BME280;2932;52.400;9.558;2023-07-29T11:30:06;99973.03;;;26.12;56.43
5812;BME280;2932;52.400;9.558;2023-07-29T11:32:32;99983.06;;;26.35;56.19
5812;BME280;2932;52.400;9.558;2023-07-29T11:35:02;99983.09;;;26.04;56.43
5812;BME280;2932;52.400;9.558;2023-07-29T11:37:27;99987.28;;;25.81;56.43
5812;BME280;2932;52.400;9.558;2023-07-29T11:39:52;99977.75;;;26.06;55.63
5812;BME280;2932;52.400;9.558;2023-07-29T11:42:18;99983.19;;;26.41;55.41
5812;BME280;2932;52.400;9.558;2023-07-29T11:44:43;99983.78;;;26.17;55.58
5812;BME280;2932;52.400;9.558;2023-07-29T11:47:10;100001.03;;;26.01;56.94
5812;BME280;2932;52.400;9.558;2023-07-29T11:49:38;99988.28;;;26.06;56.65
5812;BME280;2932;52.400;9.558;2023-07-29T11:52:03;99990.94;;;26.31;56.55
5812;BME280;2932;52.400;9.558;2023-07-29T11:54:30;99985.50;;;26.15;55.77
5812;BME280;2932;52.400;9.558;2023-07-29T11:56:56;99992.03;;;26.34;55.53
5812;BME280;2932;52.400;9.558;2023-07-29T11:59:21;99990.31;;;26.36;54.24
5812;BME280;2932;52.400;9.558;2023-07-29T12:01:49;99991.66;;;25.73;54.67
5812;BME280;2932;52.400;9.558;2023-07-29T12:04:15;99990.66;;;25.98;55.61
5812;BME280;2932;52.400;9.558;2023-07-29T12:06:41;99991.56;;;26.44;54.39
5812;BME280;2932;52.400;9.558;2023-07-29T12:09:07;99997.09;;;26.48;53.57
5812;BME280;2932;52.400;9.558;2023-07-29T12:11:34;100002.94;;;26.53;56.71
5812;BME280;2932;52.400;9.558;2023-07-29T12:14:00;99999.63;;;26.91;56.26
5812;BME280;2932;52.400;9.558;2023-07-29T12:16:25;99997.56;;;27.38;55.35
5812;BME280;2932;52.400;9.558;2023-07-29T12:18:50;99996.31;;;26.84;55.88
5812;BME280;2932;52.400;9.558;2023-07-29T12:21:18;100002.16;;;26.89;56.00
5812;BME280;2932;52.400;9.558;2023-07-29T12:23:44;100003.41;;;26.79;56.42
5812;BME280;2932;52.400;9.558;2023-07-29T12:26:10;99996.78;;;26.37;56.83
5812;BME280;2932;52.400;9.558;2023-07-29T12:28:35;99999.31;;;26.04;57.72
5812;BME280;2932;52.400;9.558;2023-07-29T12:31:01;100009.00;;;26.24;57.20
5812;BME280;2932;52.400;9.558;2023-07-29T12:33:31;100003.09;;;26.59;56.91
5812;BME280;2932;52.400;9.558;2023-07-29T12:35:56;99992.09;;;26.98;55.94
5812;BME280;2932;52.400;9.558;2023-07-29T12:38:22;99995.44;;;27.66;55.35
5812;BME280;2932;52.400;9.558;2023-07-29T12:40:47;99997.44;;;27.83;53.82
5812;BME280;2932;52.400;9.558;2023-07-29T12:43:12;99990.41;;;28.36;53.41
5812;BME280;2932;52.400;9.558;2023-07-29T12:45:38;99991.50;;;27.63;51.93
5812;BME280;2932;52.400;9.558;2023-07-29T12:48:05;100000.19;;;28.02;52.29
5812;BME280;2932;52.400;9.558;2023-07-29T12:50:30;99985.19;;;28.58;51.53
5812;BME280;2932;52.400;9.558;2023-07-29T12:52:55;99982.75;;;29.04;49.94
5812;BME280;2932;52.400;9.558;2023-07-29T12:55:21;99983.47;;;28.75;49.62
5812;BME280;2932;52.400;9.558;2023-07-29T12:57:46;99993.78;;;27.92;51.32
5812;BME280;2932;52.400;9.558;2023-07-29T13:00:12;99984.47;;;27.22;52.94
5812;BME280;2932;52.400;9.558;2023-07-29T13:02:38;99976.09;;;27.37;51.79
5812;BME280;2932;52.400;9.558;2023-07-29T13:05:04;99986.09;;;26.96;52.90
5812;BME280;2932;52.400;9.558;2023-07-29T13:07:29;99988.78;;;26.72;53.03
5812;BME280;2932;52.400;9.558;2023-07-29T13:09:54;99983.41;;;26.74;53.54
5812;BME280;2932;52.400;9.558;2023-07-29T13:12:20;99977.25;;;27.72;52.12
5812;BME280;2932;52.400;9.558;2023-07-29T13:14:45;99980.50;;;27.89;51.64
5812;BME280;2932;52.400;9.558;2023-07-29T13:17:10;99990.19;;;27.04;51.84
5812;BME280;2932;52.400;9.558;2023-07-29T13:19:36;99987.16;;;26.52;52.63
5812;BME280;2932;52.400;9.558;2023-07-29T13:22:01;99983.22;;;26.59;52.24
5812;BME280;2932;52.400;9.558;2023-07-29T13:24:27;99980.56;;;26.74;51.96
5812;BME280;2932;52.400;9.558;2023-07-29T13:26:52;99975.03;;;27.16;51.13
5812;BME280;2932;52.400;9.558;2023-07-29T13:29:18;99979.78;;;27.19;51.90
5812;BME280;2932;52.400;9.558;2023-07-29T13:31:43;99983.56;;;27.07;52.20